Time;durP1;ratioP1;P1;durP2;ratioP2;P2;SDS_P1;SDS_P2;PMS_P1;PMS_P2;Temp;Humidity;BMP_temperature;BMP_pressure;BME280_temperature;BME280_humidity;BME280_pressure;Samples;Min_cycle;Max_cycle;Signal;HPM_P1;HPM_P2
2022/10/09 00:00:52;;;;;;;14.68;8.25;;;;;;;;;;5001203;28;20496;-88
2022/10/09 00:03:25;;;;;;;12.60;8.18;;;;;;;;;;5030905;28;20439;-89
2022/10/09 00:05:54;;;;;;;14.83;8.10;;;;;;;;;;5007652;28;20424;-88
2022/10/09 00:08:20;;;;;;;15.45;8.15;;;;;;;;;;5008429;28;20427;-88
2022/10/09 00:10:46;;;;;;;13.25;7.80;;;;;;;;;;5013544;28;20427;-88
2022/10/09 00:13:15;;;;;;;13.85;8.30;;;;;;;;;;5014155;28;20449;-88
2022/10/09 00:15:45;;;;;;;13.38;7.38;;;;;;;;;;5010756;28;20459;-88
2022/10/09 00:18:14;;;;;;;12.57;7.18;;;;;;;;;;5005739;28;20427;-88
2022/10/09 00:20:44;;;;;;;14.15;7.35;;;;;;;;;;4999719;28;20404;-88
2022/10/09 00:23:21;;;;;;;13.10;7.50;;;;;;;;;;5027298;28;20498;-88
2022/10/09 00:26:15;;;;;;;12.43;6.57;;;;;;;;;;4998463;28;20448;-88
2022/10/09 00:28:41;;;;;;;14.18;7.40;;;;;;;;;;5006763;28;20427;-88
2022/10/09 00:31:08;;;;;;;12.20;6.93;;;;;;;;;;4997816;28;20412;-88
2022/10/09 00:33:38;;;;;;;12.68;7.05;;;;;;;;;;5009929;28;20483;-88
2022/10/09 00:36:10;;;;;;;12.63;7.05;;;;;;;;;;5014050;28;20450;-88
2022/10/09 00:38:39;;;;;;;10.13;6.47;;;;;;;;;;5006741;28;20427;-88
2022/10/09 00:41:12;;;;;;;14.10;7.20;;;;;;;;;;5004478;28;20447;-88
2022/10/09 00:43:55;;;;;;;11.75;6.50;;;;;;;;;;5022326;28;20440;-88
2022/10/09 00:46:26;;;;;;;12.00;6.65;;;;;;;;;;5012617;28;20454;-88
2022/10/09 00:49:10;;;;;;;13.70;6.33;;;;;;;;;;5012819;28;20184;-88
2022/10/09 00:51:37;;;;;;;10.40;6.50;;;;;;;;;;5017107;28;20177;-88
2022/10/09 00:54:12;;;;;;;11.10;6.30;;;;;;;;;;5005257;28;20182;-88
2022/10/09 00:56:41;;;;;;;8.07;6.07;;;;;;;;;;5021852;28;20231;-89
2022/10/09 00:59:10;;;;;;;14.10;6.33;;;;;;;;;;4994130;28;20215;-88
2022/10/09 01:01:37;;;;;;;8.90;6.03;;;;;;;;;;5014679;28;20213;-88
2022/10/09 01:04:03;;;;;;;11.57;5.93;;;;;;;;;;5014927;28;20216;-88
2022/10/09 01:06:32;;;;;;;11.33;6.10;;;;;;;;;;5005995;28;20178;-88
2022/10/09 01:09:06;;;;;;;8.07;5.40;;;;;;;;;;5015191;28;20196;-88
2022/10/09 01:11:32;;;;;;;7.87;5.50;;;;;;;;;;5014701;28;20184;-89
2022/10/09 01:14:12;;;;;;;8.30;5.30;;;;;;;;;;5015473;28;20185;-88
2022/10/09 01:16:44;;;;;;;7.10;5.13;;;;;;;;;;4998562;28;20170;-88
2022/10/09 01:22:39;;;;;;;9.57;5.27;;;;;;;;;;5007893;28;20193;-88
2022/10/09 01:25:19;;;;;;;11.20;6.20;;;;;;;;;;4998338;28;20206;-88
2022/10/09 01:27:50;;;;;;;10.93;5.37;;;;;;;;;;5007324;28;20177;-88
2022/10/09 01:30:21;;;;;;;13.23;5.67;;;;;;;;;;5002241;28;20186;-88
2022/10/09 01:32:51;;;;;;;12.67;5.60;;;;;;;;;;5026614;28;20209;-88
2022/10/09 01:35:20;;;;;;;10.57;5.70;;;;;;;;;;5010376;28;20192;-88
2022/10/09 01:37:50;;;;;;;10.03;5.17;;;;;;;;;;5017322;28;20189;-88
2022/10/09 01:40:22;;;;;;;12.50;5.73;;;;;;;;;;5028494;28;20193;-88
2022/10/09 01:42:51;;;;;;;9.07;5.67;;;;;;;;;;5012399;28;20178;-89
2022/10/09 01:45:38;;;;;;;10.83;6.10;;;;;;;;;;5005456;28;20210;-88
2022/10/09 01:48:04;;;;;;;12.83;5.87;;;;;;;;;;5010435;28;20181;-88
2022/10/09 01:50:32;;;;;;;8.93;5.60;;;;;;;;;;5007500;28;20188;-88
2022/10/09 01:53:14;;;;;;;13.03;5.43;;;;;;;;;;5011027;28;20177;-88
2022/10/09 01:55:45;;;;;;;11.57;5.67;;;;;;;;;;5001186;28;20227;-88
2022/10/09 01:58:21;;;;;;;10.63;5.57;;;;;;;;;;5013650;28;20185;-88
2022/10/09 02:00:53;;;;;;;8.53;5.50;;;;;;;;;;5012787;28;20315;-88
2022/10/09 02:03:23;;;;;;;9.90;5.80;;;;;;;;;;5005857;28;20308;-88
2022/10/09 02:05:53;;;;;;;9.70;5.53;;;;;;;;;;5005254;28;20264;-88
2022/10/09 02:08:20;;;;;;;10.23;5.27;;;;;;;;;;5027887;28;20188;-88
2022/10/09 02:10:48;;;;;;;10.13;5.70;;;;;;;;;;4998838;28;20189;-88
2022/10/09 02:13:17;;;;;;;11.93;6.23;;;;;;;;;;5017977;28;20247;-88
2022/10/09 02:15:47;;;;;;;11.03;6.50;;;;;;;;;;5005485;28;20182;-88
2022/10/09 02:18:19;;;;;;;13.57;6.03;;;;;;;;;;5012912;28;20253;-88
2022/10/09 02:20:50;;;;;;;8.93;5.70;;;;;;;;;;5003606;28;20189;-88
2022/10/09 02:23:16;;;;;;;11.37;5.87;;;;;;;;;;5000242;28;20231;-88
2022/10/09 02:25:42;;;;;;;10.10;5.97;;;;;;;;;;5017156;28;20174;-89
2022/10/09 02:28:15;;;;;;;10.27;5.63;;;;;;;;;;5007746;28;20209;-88
2022/10/09 02:31:04;;;;;;;13.70;6.57;;;;;;;;;;5001632;28;20208;-88
2022/10/09 02:33:31;;;;;;;9.33;5.60;;;;;;;;;;4999756;28;20225;-88
2022/10/09 02:36:00;;;;;;;12.70;5.87;;;;;;;;;;5018990;28;20182;-88
2022/10/09 02:38:27;;;;;;;9.40;5.93;;;;;;;;;;5000175;28;20185;-88
2022/10/09 02:40:56;;;;;;;8.90;5.80;;;;;;;;;;5023035;28;20263;-88
2022/10/09 02:43:22;;;;;;;9.67;6.13;;;;;;;;;;5008396;28;20209;-88
2022/10/09 02:45:51;;;;;;;9.20;5.77;;;;;;;;;;5023963;28;20235;-88
2022/10/09 02:48:19;;;;;;;6.40;5.60;;;;;;;;;;5008871;28;20177;-88
2022/10/09 02:50:46;;;;;;;10.67;5.77;;;;;;;;;;5009410;28;20185;-88
2022/10/09 02:53:14;;;;;;;8.80;5.20;;;;;;;;;;5016792;28;20271;-88
2022/10/09 02:55:43;;;;;;;10.23;5.77;;;;;;;;;;5006141;28;20208;-88
2022/10/09 02:58:09;;;;;;;12.10;6.13;;;;;;;;;;5023934;28;20209;-88
2022/10/09 03:00:37;;;;;;;8.43;5.83;;;;;;;;;;5025886;28;20229;-88
2022/10/09 03:03:06;;;;;;;10.83;5.73;;;;;;;;;;5014022;28;20227;-88
2022/10/09 03:05:32;;;;;;;9.80;5.83;;;;;;;;;;5017404;28;20174;-88
2022/10/09 03:08:05;;;;;;;10.30;5.83;;;;;;;;;;5021060;28;20178;-88
2022/10/09 03:10:32;;;;;;;11.57;5.77;;;;;;;;;;4999156;28;20174;-88
2022/10/09 03:12:58;;;;;;;9.63;6.30;;;;;;;;;;5024651;28;20276;-88
2022/10/09 03:15:26;;;;;;;12.00;6.83;;;;;;;;;;5010735;28;20193;-88
2022/10/09 03:17:52;;;;;;;11.80;7.10;;;;;;;;;;5010436;28;20192;-89
2022/10/09 03:20:24;;;;;;;13.30;6.93;;;;;;;;;;5002199;28;20200;-87
2022/10/09 03:22:50;;;;;;;15.40;6.97;;;;;;;;;;4980937;28;20194;-88
2022/10/09 03:25:16;;;;;;;15.13;8.57;;;;;;;;;;5012667;28;20201;-88
2022/10/09 03:27:52;;;;;;;16.47;8.27;;;;;;;;;;5009163;28;20186;-88
2022/10/09 03:30:25;;;;;;;19.57;8.27;;;;;;;;;;5010193;28;20189;-88
2022/10/09 03:32:52;;;;;;;15.57;8.80;;;;;;;;;;5006917;28;20267;-88
2022/10/09 03:35:20;;;;;;;16.77;9.20;;;;;;;;;;5013291;28;20184;-88
2022/10/09 03:37:47;;;;;;;14.97;8.17;;;;;;;;;;5008176;28;20190;-88
2022/10/09 03:40:13;;;;;;;21.03;8.60;;;;;;;;;;5028884;28;20283;-88
2022/10/09 03:42:57;;;;;;;17.10;8.83;;;;;;;;;;5011776;28;20195;-88
2022/10/09 03:45:31;;;;;;;15.07;8.33;;;;;;;;;;5000742;28;20210;-88
2022/10/09 03:48:00;;;;;;;18.03;8.80;;;;;;;;;;5015185;28;20220;-88
2022/10/09 03:50:29;;;;;;;16.80;9.23;;;;;;;;;;5016123;28;20185;-88
2022/10/09 03:52:55;;;;;;;14.30;8.80;;;;;;;;;;5015865;28;20297;-88
2022/10/09 03:55:21;;;;;;;15.80;8.70;;;;;;;;;;5014902;28;20181;-88
2022/10/09 03:57:50;;;;;;;16.03;8.87;;;;;;;;;;4999784;28;20193;-88
2022/10/09 04:00:16;;;;;;;13.23;8.70;;;;;;;;;;5015368;28;20229;-88
2022/10/09 04:02:42;;;;;;;15.17;9.03;;;;;;;;;;5006852;28;20294;-88
2022/10/09 04:05:08;;;;;;;16.80;10.40;;;;;;;;;;4998736;28;20449;-88
2022/10/09 04:10:20;;;;;;;18.33;10.43;;;;;;;;;;5011713;28;20430;-88
2022/10/09 04:12:49;;;;;;;15.30;9.57;;;;;;;;;;5010264;28;20450;-88
2022/10/09 04:15:15;;;;;;;14.57;8.87;;;;;;;;;;5014733;28;20193;-88
2022/10/09 04:17:46;;;;;;;15.63;8.67;;;;;;;;;;5008700;28;20217;-88
2022/10/09 04:20:13;;;;;;;12.43;8.67;;;;;;;;;;5027283;28;20189;-88
2022/10/09 04:22:39;;;;;;;16.53;9.03;;;;;;;;;;5015172;28;20239;-88
2022/10/09 04:25:12;;;;;;;16.10;8.40;;;;;;;;;;4998673;28;20252;-88
2022/10/09 04:27:38;;;;;;;16.58;10.50;;;;;;;;;;4983271;28;20511;-88
2022/10/09 04:30:09;;;;;;;15.20;8.90;;;;;;;;;;5014430;28;20189;-88
2022/10/09 04:32:35;;;;;;;15.37;8.70;;;;;;;;;;5009113;28;20182;-88
2022/10/09 04:35:10;;;;;;;17.30;7.90;;;;;;;;;;5013406;28;20189;-88
2022/10/09 04:37:36;;;;;;;14.57;8.80;;;;;;;;;;4985369;28;20196;-88
2022/10/09 04:40:24;;;;;;;14.27;7.63;;;;;;;;;;5005184;28;20209;-88
2022/10/09 04:42:55;;;;;;;12.50;7.87;;;;;;;;;;5012320;28;20197;-88
2022/10/09 04:45:23;;;;;;;15.33;8.53;;;;;;;;;;4997443;28;20214;-88
2022/10/09 04:47:52;;;;;;;12.00;7.83;;;;;;;;;;5005999;28;20189;-88
2022/10/09 04:50:20;;;;;;;14.27;7.90;;;;;;;;;;5025178;28;20182;-88
2022/10/09 04:52:46;;;;;;;14.57;7.90;;;;;;;;;;4994856;28;20243;-88
2022/10/09 04:55:15;;;;;;;12.73;7.70;;;;;;;;;;4998812;28;20181;-88
2022/10/09 04:57:41;;;;;;;10.50;7.73;;;;;;;;;;4997233;28;20193;-88
2022/10/09 05:00:13;;;;;;;13.93;7.63;;;;;;;;;;5011158;28;20221;-88
2022/10/09 05:02:41;;;;;;;14.63;8.00;;;;;;;;;;4998094;28;20272;-89
2022/10/09 05:05:30;;;;;;;15.17;8.07;;;;;;;;;;5014710;28;20299;-89
2022/10/09 05:10:54;;;;;;;11.13;7.40;;;;;;;;;;5002165;28;20185;-89
2022/10/09 05:16:30;;;;;;;11.30;7.83;;;;;;;;;;5015107;28;20234;-89
2022/10/09 05:19:21;;;;;;;11.00;7.17;;;;;;;;;;5015265;28;20189;-89
2022/10/09 05:21:50;;;;;;;10.43;7.40;;;;;;;;;;5008532;28;20181;-89
2022/10/09 05:27:22;;;;;;;10.67;7.80;;;;;;;;;;5014521;28;20267;-88
2022/10/09 05:30:08;;;;;;;10.50;7.13;;;;;;;;;;5014709;28;20174;-88
2022/10/09 05:32:34;;;;;;;13.00;7.37;;;;;;;;;;5009107;28;20186;-88
2022/10/09 05:35:09;;;;;;;8.97;6.93;;;;;;;;;;5011370;28;20192;-89
2022/10/09 05:37:41;;;;;;;10.70;6.87;;;;;;;;;;5012235;28;20185;-88
2022/10/09 05:40:07;;;;;;;10.13;7.00;;;;;;;;;;5039156;28;20178;-89
2022/10/09 05:42:58;;;;;;;7.80;6.23;;;;;;;;;;5046106;28;20185;-89
2022/10/09 05:45:23;;;;;;;12.47;7.50;;;;;;;;;;5013395;28;20223;-88
2022/10/09 05:48:07;;;;;;;10.17;6.27;;;;;;;;;;5013897;28;20189;-88
2022/10/09 05:50:33;;;;;;;10.50;6.77;;;;;;;;;;5020369;28;20193;-89
2022/10/09 05:53:02;;;;;;;12.20;7.23;;;;;;;;;;5014436;28;20181;-88
2022/10/09 05:55:31;;;;;;;13.57;6.60;;;;;;;;;;5034855;28;20223;-88
2022/10/09 05:58:02;;;;;;;11.63;7.30;;;;;;;;;;5010682;28;20272;-88
2022/10/09 06:00:29;;;;;;;14.90;7.13;;;;;;;;;;5010810;28;20300;-89
2022/10/09 06:03:02;;;;;;;10.20;6.43;;;;;;;;;;5013005;28;20240;-88
2022/10/09 06:05:34;;;;;;;10.87;6.60;;;;;;;;;;5014029;28;20297;-89
2022/10/09 06:08:03;;;;;;;12.10;7.50;;;;;;;;;;5011748;28;20178;-89
2022/10/09 06:10:29;;;;;;;16.97;7.37;;;;;;;;;;5012686;28;20185;-88
2022/10/09 06:12:57;;;;;;;13.30;7.13;;;;;;;;;;5013607;28;20265;-88
2022/10/09 06:15:23;;;;;;;15.77;8.70;;;;;;;;;;4997308;28;20235;-89
2022/10/09 06:17:57;;;;;;;13.23;7.30;;;;;;;;;;5001534;28;20193;-89
2022/10/09 06:20:23;;;;;;;16.30;8.43;;;;;;;;;;5010295;28;20193;-88
2022/10/09 06:22:49;;;;;;;18.93;9.47;;;;;;;;;;5022266;28;20185;-88
2022/10/09 06:25:17;;;;;;;19.37;9.40;;;;;;;;;;5030390;28;20213;-88
2022/10/09 06:27:46;;;;;;;15.00;9.70;;;;;;;;;;5013699;28;20197;-88
2022/10/09 06:30:12;;;;;;;18.30;9.93;;;;;;;;;;5013467;28;20246;-89
2022/10/09 06:32:41;;;;;;;19.47;9.43;;;;;;;;;;5032679;28;20185;-88
2022/10/09 06:35:07;;;;;;;16.63;10.20;;;;;;;;;;5013224;28;20193;-89
2022/10/09 06:37:41;;;;;;;18.77;9.87;;;;;;;;;;5011603;28;20189;-89
2022/10/09 06:40:07;;;;;;;18.33;9.97;;;;;;;;;;5012243;28;20181;-89
2022/10/09 06:42:33;;;;;;;14.37;9.53;;;;;;;;;;5012931;28;20209;-89
2022/10/09 06:45:02;;;;;;;15.43;10.20;;;;;;;;;;5013209;28;20197;-89
2022/10/09 06:47:31;;;;;;;15.30;9.97;;;;;;;;;;5008659;28;20220;-89
2022/10/09 06:50:00;;;;;;;14.97;9.40;;;;;;;;;;5022317;28;20197;-88
2022/10/09 06:52:26;;;;;;;14.83;9.23;;;;;;;;;;5011281;28;20191;-88
2022/10/09 06:54:52;;;;;;;15.43;9.70;;;;;;;;;;5030724;28;20186;-89
2022/10/09 06:57:18;;;;;;;12.30;8.80;;;;;;;;;;5036939;28;20188;-89
2022/10/09 06:59:48;;;;;;;11.70;9.23;;;;;;;;;;5017829;28;20215;-89
2022/10/09 07:02:15;;;;;;;11.50;8.10;;;;;;;;;;5022972;28;20236;-89
2022/10/09 07:04:41;;;;;;;11.67;9.73;;;;;;;;;;5025400;28;20213;-89
2022/10/09 07:07:12;;;;;;;13.97;8.93;;;;;;;;;;4997534;28;20648;-89
2022/10/09 07:09:56;;;;;;;;;;;;;;;;;;;;;
2022/10/09 07:12:45;;;;;;;13.50;9.63;;;;;;;;;;5015629;28;20185;-89
2022/10/09 07:15:21;;;;;;;12.03;9.67;;;;;;;;;;5001091;28;20285;-89
2022/10/09 07:17:52;;;;;;;15.43;10.03;;;;;;;;;;4998997;28;20201;-89
2022/10/09 07:20:18;;;;;;;13.87;11.13;;;;;;;;;;4997494;28;20275;-89
2022/10/09 07:22:52;;;;;;;14.63;10.93;;;;;;;;;;5014686;28;20199;-90
2022/10/09 07:25:18;;;;;;;14.80;11.37;;;;;;;;;;5014266;28;20204;-90
2022/10/09 07:27:47;;;;;;;15.70;10.53;;;;;;;;;;5013665;28;20208;-90
2022/10/09 07:30:16;;;;;;;13.77;11.10;;;;;;;;;;5013573;28;20204;-89
2022/10/09 07:32:53;;;;;;;16.97;11.73;;;;;;;;;;5014168;28;20182;-89
2022/10/09 07:35:22;;;;;;;19.10;11.87;;;;;;;;;;5013774;28;20208;-90
2022/10/09 07:37:53;;;;;;;15.50;12.50;;;;;;;;;;5013816;28;20243;-90
2022/10/09 07:40:24;;;;;;;17.87;12.07;;;;;;;;;;5014338;28;20280;-90
2022/10/09 07:43:17;;;;;;;19.67;12.50;;;;;;;;;;5014691;28;20177;-90
2022/10/09 07:46:01;;;;;;;18.20;12.43;;;;;;;;;;5015502;28;20216;-91
2022/10/09 07:48:53;;;;;;;21.10;13.03;;;;;;;;;;5017873;28;20199;-91
2022/10/09 07:54:58;;;;;;;17.93;13.23;;;;;;;;;;5018449;28;20181;-91
2022/10/09 19:54:25;;;;;;;9.63;6.83;;;;;;;;;;4855158;29;20235;-89
2022/10/09 19:56:51;;;;;;;11.15;7.95;;;;;;;;;;4821786;29;20501;-87
2022/10/09 19:59:17;;;;;;;11.07;7.03;;;;;;;;;;4841273;29;20436;-88
2022/10/09 20:01:43;;;;;;;9.77;7.35;;;;;;;;;;4837498;29;20473;-88
2022/10/09 20:04:10;;;;;;;11.75;8.85;;;;;;;;;;4841039;29;20455;-80
2022/10/09 20:06:37;;;;;;;12.10;8.77;;;;;;;;;;4857855;29;20496;-79
2022/10/09 20:09:04;;;;;;;9.75;8.30;;;;;;;;;;4864844;29;20438;-79
2022/10/09 20:11:30;;;;;;;10.52;8.05;;;;;;;;;;4822002;29;20433;-79
2022/10/09 20:13:58;;;;;;;10.30;7.90;;;;;;;;;;4868368;29;20498;-79
2022/10/09 20:16:24;;;;;;;11.70;7.72;;;;;;;;;;4838293;29;20468;-79
2022/10/09 20:18:50;;;;;;;11.48;7.80;;;;;;;;;;4867873;29;20444;-80
2022/10/09 20:21:17;;;;;;;9.55;7.63;;;;;;;;;;4868864;29;20435;-80
2022/10/09 20:23:43;;;;;;;9.25;7.53;;;;;;;;;;4821520;29;20431;-80
2022/10/09 20:26:14;;;;;;;10.95;8.23;;;;;;;;;;4840277;29;20419;-80
2022/10/09 20:28:41;;;;;;;11.45;7.75;;;;;;;;;;4837908;29;20425;-80
2022/10/09 20:31:13;;;;;;;10.05;7.70;;;;;;;;;;4867259;29;20437;-80
2022/10/09 20:33:39;;;;;;;10.23;7.70;;;;;;;;;;4854020;29;20411;-80
2022/10/09 20:36:08;;;;;;;12.98;8.00;;;;;;;;;;4838293;29;20425;-80
2022/10/09 20:38:34;;;;;;;10.87;7.83;;;;;;;;;;4836554;29;20468;-81
2022/10/09 20:41:06;;;;;;;11.07;7.78;;;;;;;;;;4837505;29;20428;-81
2022/10/09 20:43:32;;;;;;;10.35;7.28;;;;;;;;;;4855115;29;20418;-81
2022/10/09 20:45:58;;;;;;;9.43;7.57;;;;;;;;;;4822545;29;20446;-81
2022/10/09 20:48:27;;;;;;;13.05;10.25;;;;;;;;;;4818029;29;20440;-81
2022/10/09 20:50:59;;;;;;;14.32;11.25;;;;;;;;;;4831184;29;20421;-81
2022/10/09 20:53:25;;;;;;;13.38;11.02;;;;;;;;;;4844504;29;20441;-81
2022/10/09 20:55:51;;;;;;;17.65;13.20;;;;;;;;;;4831572;29;20427;-80
2022/10/09 20:58:17;;;;;;;19.55;14.15;;;;;;;;;;4831538;29;20440;-80
2022/10/09 21:00:43;;;;;;;17.40;13.55;;;;;;;;;;4831501;29;20439;-80
2022/10/09 21:03:10;;;;;;;14.45;12.05;;;;;;;;;;4860462;29;20443;-80
2022/10/09 21:05:40;;;;;;;10.33;8.67;;;;;;;;;;4846668;29;20237;-80
2022/10/09 21:08:06;;;;;;;10.67;8.50;;;;;;;;;;4832623;29;20187;-80
2022/10/09 21:10:32;;;;;;;10.40;8.33;;;;;;;;;;4832362;29;20243;-81
2022/10/09 21:12:58;;;;;;;9.17;6.70;;;;;;;;;;4840116;29;20195;-82
2022/10/09 21:15:26;;;;;;;9.57;6.63;;;;;;;;;;4831689;29;20201;-82
2022/10/09 21:17:52;;;;;;;9.88;7.93;;;;;;;;;;4846191;29;20424;-81
2022/10/09 21:20:18;;;;;;;9.02;7.80;;;;;;;;;;4845542;29;20434;-81
2022/10/09 21:22:45;;;;;;;10.77;8.38;;;;;;;;;;4846131;29;20485;-81
2022/10/09 21:25:11;;;;;;;10.60;9.50;;;;;;;;;;4845921;29;20448;-81
2022/10/09 21:27:36;;;;;;;10.85;9.55;;;;;;;;;;4835040;29;20468;-81
2022/10/09 21:30:03;;;;;;;12.95;10.60;;;;;;;;;;4845895;29;20439;-80
2022/10/09 21:32:29;;;;;;;13.13;10.52;;;;;;;;;;4835072;29;20426;-80
2022/10/09 21:34:55;;;;;;;14.13;10.90;;;;;;;;;;4828222;29;20436;-80
2022/10/09 21:37:21;;;;;;;14.70;12.07;;;;;;;;;;4862273;29;20502;-80
2022/10/09 21:39:47;;;;;;;16.85;12.73;;;;;;;;;;4836095;29;20420;-80
2022/10/09 21:42:13;;;;;;;16.30;12.03;;;;;;;;;;4817826;29;20440;-80
2022/10/09 21:44:39;;;;;;;16.80;11.35;;;;;;;;;;4845992;29;20451;-80
2022/10/09 21:47:05;;;;;;;13.15;10.23;;;;;;;;;;4846160;29;20444;-80
2022/10/09 21:49:31;;;;;;;13.63;10.60;;;;;;;;;;4842206;29;20496;-80
2022/10/09 21:51:57;;;;;;;11.02;9.75;;;;;;;;;;4850352;29;20485;-80
2022/10/09 21:54:23;;;;;;;11.00;8.90;;;;;;;;;;4861398;29;20513;-79
2022/10/09 21:56:49;;;;;;;10.57;7.97;;;;;;;;;;4845959;29;20190;-78
2022/10/09 21:59:15;;;;;;;10.80;8.93;;;;;;;;;;4830258;29;20471;-78
2022/10/09 22:01:41;;;;;;;9.57;8.35;;;;;;;;;;4845129;29;20450;-78
2022/10/09 22:04:07;;;;;;;8.03;7.23;;;;;;;;;;4845979;29;20222;-76
2022/10/09 22:06:33;;;;;;;9.77;7.90;;;;;;;;;;4827582;29;20506;-78
2022/10/09 22:08:59;;;;;;;9.38;7.53;;;;;;;;;;4861734;29;20435;-86
2022/10/09 22:11:25;;;;;;;11.30;7.93;;;;;;;;;;4845446;29;20427;-87
2022/10/09 22:13:51;;;;;;;10.13;7.90;;;;;;;;;;4845568;29;20438;-86
2022/10/09 22:16:17;;;;;;;9.77;7.80;;;;;;;;;;4845403;29;20531;-86
2022/10/09 22:18:43;;;;;;;11.40;7.83;;;;;;;;;;4830588;29;20238;-81
2022/10/09 22:21:11;;;;;;;12.63;8.40;;;;;;;;;;4834900;29;20508;-80
2022/10/09 22:23:38;;;;;;;11.80;8.80;;;;;;;;;;4850362;29;20443;-80
2022/10/09 22:26:05;;;;;;;10.48;8.38;;;;;;;;;;4845014;29;20500;-80
2022/10/09 22:28:32;;;;;;;12.18;7.85;;;;;;;;;;4845230;29;20427;-80
2022/10/09 22:31:01;;;;;;;10.10;7.83;;;;;;;;;;4830224;29;20424;-80
2022/10/09 22:33:27;;;;;;;9.27;7.60;;;;;;;;;;4844544;29;20415;-80
2022/10/09 22:35:53;;;;;;;11.25;7.53;;;;;;;;;;4830688;29;20419;-77
2022/10/09 22:38:19;;;;;;;9.07;7.43;;;;;;;;;;4860555;29;20431;-77
2022/10/09 22:40:45;;;;;;;10.07;7.47;;;;;;;;;;4858271;29;20444;-77
2022/10/09 22:43:11;;;;;;;8.23;6.67;;;;;;;;;;4844356;29;20197;-77
2022/10/09 22:45:37;;;;;;;9.90;6.97;;;;;;;;;;4845685;29;20266;-77
2022/10/09 22:48:03;;;;;;;8.23;6.63;;;;;;;;;;4861895;29;20219;-77
2022/10/09 22:50:29;;;;;;;8.90;6.70;;;;;;;;;;4841632;29;20207;-79
2022/10/09 22:52:55;;;;;;;8.80;6.50;;;;;;;;;;4830726;29;20238;-79
2022/10/09 22:55:21;;;;;;;9.00;6.67;;;;;;;;;;4845420;29;20210;-79
2022/10/09 22:57:47;;;;;;;11.67;6.93;;;;;;;;;;4845803;29;20183;-76
2022/10/09 23:00:13;;;;;;;7.30;6.57;;;;;;;;;;4845623;29;20202;-77
2022/10/09 23:02:39;;;;;;;11.50;7.30;;;;;;;;;;4846040;29;20187;-77
2022/10/09 23:05:05;;;;;;;10.23;7.30;;;;;;;;;;4830241;29;20470;-77
2022/10/09 23:07:31;;;;;;;9.77;7.82;;;;;;;;;;4845168;29;20477;-87
2022/10/09 23:09:57;;;;;;;9.20;7.75;;;;;;;;;;4829666;29;20436;-87
2022/10/09 23:12:23;;;;;;;9.48;8.20;;;;;;;;;;4829923;29;20432;-87
2022/10/09 23:14:49;;;;;;;9.80;7.70;;;;;;;;;;4844917;29;20428;-87
2022/10/09 23:17:15;;;;;;;9.60;8.00;;;;;;;;;;4829592;29;20536;-87
2022/10/09 23:19:41;;;;;;;10.38;7.82;;;;;;;;;;4845136;29;20454;-88
2022/10/09 23:22:07;;;;;;;9.27;7.60;;;;;;;;;;4829329;29;20468;-86
2022/10/09 23:24:33;;;;;;;8.67;7.17;;;;;;;;;;4852420;29;20215;-87
2022/10/09 23:26:59;;;;;;;9.73;7.85;;;;;;;;;;4831042;29;20437;-87
2022/10/09 23:29:25;;;;;;;9.15;7.28;;;;;;;;;;4850636;29;20432;-87
2022/10/09 23:31:52;;;;;;;10.85;7.78;;;;;;;;;;4870580;29;20426;-87
2022/10/09 23:34:18;;;;;;;10.60;7.43;;;;;;;;;;4835221;29;20428;-87
2022/10/09 23:36:44;;;;;;;10.00;7.78;;;;;;;;;;4860641;29;20422;-88
2022/10/09 23:39:11;;;;;;;10.07;7.90;;;;;;;;;;4841962;29;20433;-87
2022/10/09 23:41:37;;;;;;;12.30;7.27;;;;;;;;;;4846345;29;20198;-77
2022/10/09 23:44:03;;;;;;;10.57;7.30;;;;;;;;;;4846694;29;20307;-77
2022/10/09 23:46:31;;;;;;;10.33;7.37;;;;;;;;;;4833645;29;20205;-77
2022/10/09 23:48:57;;;;;;;9.13;7.00;;;;;;;;;;4848843;29;20191;-87
2022/10/09 23:51:24;;;;;;;13.10;6.60;;;;;;;;;;4833496;29;20198;-77
2022/10/09 23:53:50;;;;;;;9.93;7.03;;;;;;;;;;4864811;29;20238;-77
2022/10/09 23:56:20;;;;;;;8.87;6.90;;;;;;;;;;4848457;29;20190;-77
2022/10/09 23:58:46;;;;;;;9.93;7.17;;;;;;;;;;4864101;29;20183;-77
